Time;durP1;ratioP1;P1;durP2;ratioP2;P2;SDS_P1;SDS_P2;PMS_P1;PMS_P2;Temp;Humidity;BMP_temperature;BMP_pressure;BME280_temperature;BME280_humidity;BME280_pressure;Samples;Min_cycle;Max_cycle;Signal;HPM_P1;HPM_P2
2021/03/31 00:01:30;;;;;;;45.70;31.00;;;;;;;;;;4994810;28;20522;-64
2021/03/31 00:03:56;;;;;;;50.20;31.88;;;;;;;;;;4994438;28;20022;-64
2021/03/31 00:06:23;;;;;;;44.28;32.42;;;;;;;;;;4993634;28;20038;-64
2021/03/31 00:08:49;;;;;;;45.38;31.92;;;;;;;;;;4994099;28;20113;-65
2021/03/31 00:11:15;;;;;;;53.00;33.72;;;;;;;;;;4994641;28;20385;-64
2021/03/31 00:13:41;;;;;;;45.00;31.02;;;;;;;;;;4994000;28;20044;-66
2021/03/31 00:16:07;;;;;;;46.83;29.48;;;;;;;;;;4994330;28;20030;-65
2021/03/31 00:18:33;;;;;;;45.83;29.42;;;;;;;;;;4994160;28;20026;-66
2021/03/31 00:21:00;;;;;;;42.40;28.58;;;;;;;;;;4994354;28;20117;-67
2021/03/31 00:23:27;;;;;;;46.50;31.40;;;;;;;;;;4994238;28;20030;-68
2021/03/31 00:25:53;;;;;;;39.25;27.88;;;;;;;;;;4994183;28;20386;-68
2021/03/31 00:28:19;;;;;;;47.22;28.98;;;;;;;;;;4994115;28;20109;-67
2021/03/31 00:30:46;;;;;;;46.40;27.30;;;;;;;;;;4992567;28;20018;-66
2021/03/31 00:33:12;;;;;;;46.28;26.33;;;;;;;;;;4993159;28;20070;-66
2021/03/31 00:35:38;;;;;;;42.00;26.90;;;;;;;;;;4993386;28;20088;-66
2021/03/31 00:38:05;;;;;;;47.63;28.52;;;;;;;;;;4993484;28;20065;-66
2021/03/31 00:40:36;;;;;;;39.22;24.75;;;;;;;;;;4992871;28;20416;-67
2021/03/31 00:43:03;;;;;;;43.75;28.40;;;;;;;;;;4993455;28;20072;-67
2021/03/31 00:45:29;;;;;;;47.33;28.85;;;;;;;;;;4993594;28;20026;-68
2021/03/31 00:47:55;;;;;;;41.92;27.70;;;;;;;;;;4993104;28;20046;-66
2021/03/31 00:50:21;;;;;;;37.45;26.00;;;;;;;;;;4992996;28;20029;-66
2021/03/31 00:52:48;;;;;;;41.72;25.95;;;;;;;;;;4992881;28;20084;-66
2021/03/31 00:55:15;;;;;;;41.22;26.08;;;;;;;;;;4993102;28;20034;-66
2021/03/31 00:57:41;;;;;;;37.85;26.98;;;;;;;;;;4993167;28;20480;-66
2021/03/31 01:00:08;;;;;;;44.42;26.33;;;;;;;;;;4984362;28;20022;-65
2021/03/31 01:02:34;;;;;;;44.38;29.40;;;;;;;;;;4987547;28;20030;-65
2021/03/31 01:05:00;;;;;;;47.45;29.63;;;;;;;;;;4987614;28;20424;-65
2021/03/31 01:07:26;;;;;;;49.15;31.20;;;;;;;;;;4987896;28;20396;-65
2021/03/31 01:09:53;;;;;;;48.42;30.15;;;;;;;;;;4985342;28;20026;-63
2021/03/31 01:12:32;;;;;;;46.05;29.33;;;;;;;;;;4989300;28;20034;-63
2021/03/31 01:15:12;;;;;;;49.60;30.63;;;;;;;;;;4984699;28;20041;-62
2021/03/31 01:17:53;;;;;;;49.55;29.02;;;;;;;;;;4989234;28;20049;-63
2021/03/31 01:20:25;;;;;;;49.65;30.83;;;;;;;;;;4986937;28;20026;-61
2021/03/31 01:23:09;;;;;;;51.08;30.90;;;;;;;;;;4993094;28;20022;-60
2021/03/31 01:25:37;;;;;;;45.38;27.90;;;;;;;;;;4973616;28;20081;-61
2021/03/31 01:28:22;;;;;;;49.35;30.45;;;;;;;;;;4986004;28;20469;-61
2021/03/31 01:31:03;;;;;;;43.40;28.13;;;;;;;;;;4992779;28;20062;-61
2021/03/31 01:33:33;;;;;;;45.40;29.38;;;;;;;;;;4992974;28;20085;-60
2021/03/31 01:35:59;;;;;;;45.47;29.55;;;;;;;;;;4992353;28;20022;-60
2021/03/31 01:38:27;;;;;;;48.97;29.25;;;;;;;;;;4986193;28;20030;-61
2021/03/31 01:40:53;;;;;;;48.50;28.98;;;;;;;;;;4986481;28;20100;-61
2021/03/31 01:43:22;;;;;;;42.03;28.70;;;;;;;;;;4993003;28;20045;-60
2021/03/31 01:45:49;;;;;;;46.22;29.67;;;;;;;;;;4993298;28;20042;-60
2021/03/31 01:48:17;;;;;;;47.28;29.20;;;;;;;;;;4992172;28;20125;-60
2021/03/31 01:50:45;;;;;;;47.08;31.05;;;;;;;;;;4992899;28;20109;-60
2021/03/31 01:53:12;;;;;;;43.87;28.80;;;;;;;;;;4992364;28;20492;-60
2021/03/31 01:55:39;;;;;;;43.17;27.95;;;;;;;;;;4992823;28;20034;-59
2021/03/31 01:58:06;;;;;;;46.38;30.75;;;;;;;;;;4992563;28;20113;-60
2021/03/31 02:00:33;;;;;;;42.97;28.85;;;;;;;;;;4992752;28;20024;-60
2021/03/31 02:03:00;;;;;;;49.35;29.58;;;;;;;;;;4992765;28;20042;-60
2021/03/31 02:05:27;;;;;;;49.38;30.83;;;;;;;;;;4992816;28;20022;-60
2021/03/31 02:07:53;;;;;;;43.80;29.85;;;;;;;;;;4992217;28;20069;-61
2021/03/31 02:10:21;;;;;;;46.17;29.67;;;;;;;;;;4993163;28;20022;-63
2021/03/31 02:12:47;;;;;;;46.15;30.08;;;;;;;;;;4993791;28;20034;-61
2021/03/31 02:15:14;;;;;;;47.50;27.80;;;;;;;;;;4993520;28;20041;-60
2021/03/31 02:17:41;;;;;;;42.55;29.13;;;;;;;;;;4993873;28;20027;-65
2021/03/31 02:20:07;;;;;;;47.83;28.52;;;;;;;;;;4993037;28;20080;-60
2021/03/31 02:22:34;;;;;;;41.30;28.75;;;;;;;;;;4993406;28;20097;-61
2021/03/31 02:25:00;;;;;;;47.60;30.73;;;;;;;;;;4993118;28;20027;-61
2021/03/31 02:27:27;;;;;;;41.92;29.20;;;;;;;;;;4992383;28;20022;-60
2021/03/31 02:29:53;;;;;;;52.00;28.25;;;;;;;;;;4994659;28;20168;-60
2021/03/31 02:32:21;;;;;;;47.63;29.70;;;;;;;;;;4996531;28;20026;-60
2021/03/31 02:34:49;;;;;;;47.17;29.55;;;;;;;;;;4995378;28;20438;-60
2021/03/31 02:37:16;;;;;;;44.90;30.48;;;;;;;;;;4996313;28;20022;-60
2021/03/31 02:39:43;;;;;;;45.63;30.85;;;;;;;;;;4996110;28;20022;-60
2021/03/31 02:42:10;;;;;;;40.00;28.30;;;;;;;;;;4981843;28;20106;-61
2021/03/31 02:44:40;;;;;;;43.05;29.33;;;;;;;;;;4995815;28;20026;-59
2021/03/31 02:47:06;;;;;;;43.45;29.15;;;;;;;;;;4995528;28;20051;-60
2021/03/31 02:49:34;;;;;;;44.90;28.60;;;;;;;;;;4995467;28;20111;-60
2021/03/31 02:52:00;;;;;;;44.35;28.10;;;;;;;;;;4995801;28;20488;-60
2021/03/31 02:54:27;;;;;;;40.50;26.65;;;;;;;;;;4995741;28;20069;-60
2021/03/31 02:56:53;;;;;;;38.78;26.55;;;;;;;;;;4983860;28;20069;-60
2021/03/31 02:59:19;;;;;;;43.38;26.58;;;;;;;;;;4993897;28;20026;-61
2021/03/31 03:01:46;;;;;;;45.33;28.95;;;;;;;;;;4995784;28;20119;-60
2021/03/31 03:04:12;;;;;;;40.47;26.88;;;;;;;;;;4995210;28;20114;-60
2021/03/31 03:06:38;;;;;;;40.75;27.17;;;;;;;;;;4995766;28;20026;-60
2021/03/31 03:09:06;;;;;;;40.65;28.27;;;;;;;;;;4995309;28;20031;-60
2021/03/31 03:11:32;;;;;;;38.80;26.50;;;;;;;;;;4995489;28;20148;-59
2021/03/31 03:13:59;;;;;;;39.25;26.90;;;;;;;;;;4995465;28;20485;-60
2021/03/31 03:16:25;;;;;;;44.05;27.10;;;;;;;;;;4995034;28;20567;-60
2021/03/31 03:18:51;;;;;;;42.45;27.10;;;;;;;;;;4994899;28;20105;-59
2021/03/31 03:21:18;;;;;;;42.72;27.88;;;;;;;;;;4995146;28;20037;-59
2021/03/31 03:23:44;;;;;;;38.20;27.77;;;;;;;;;;4995361;28;20590;-61
2021/03/31 03:26:14;;;;;;;44.13;27.65;;;;;;;;;;4995050;28;20496;-59
2021/03/31 03:28:41;;;;;;;42.95;28.20;;;;;;;;;;4994873;28;20030;-60
2021/03/31 03:31:07;;;;;;;40.05;25.95;;;;;;;;;;4995497;28;20485;-59
2021/03/31 03:33:34;;;;;;;38.72;26.48;;;;;;;;;;4993088;28;20030;-60
2021/03/31 03:36:03;;;;;;;43.03;28.17;;;;;;;;;;4995037;28;20018;-59
2021/03/31 03:38:28;;;;;;;;;;;;;;;;;;4995119;28;20376;-60
2021/03/31 03:40:54;;;;;;;40.42;27.75;;;;;;;;;;4995040;28;19993;-60
2021/03/31 03:43:20;;;;;;;41.20;27.90;;;;;;;;;;4994801;28;20483;-59
2021/03/31 03:45:47;;;;;;;47.03;29.25;;;;;;;;;;4995004;28;20034;-59
2021/03/31 03:48:13;;;;;;;41.63;28.80;;;;;;;;;;4993828;28;20042;-59
2021/03/31 03:50:39;;;;;;;45.13;28.00;;;;;;;;;;4994660;28;20480;-59
2021/03/31 03:53:05;;;;;;;41.08;28.95;;;;;;;;;;4994821;28;20042;-58
2021/03/31 03:55:33;;;;;;;43.33;27.55;;;;;;;;;;4994304;28;20077;-59
2021/03/31 03:58:04;;;;;;;43.58;29.02;;;;;;;;;;4994207;28;20493;-59
2021/03/31 04:00:30;;;;;;;48.38;29.10;;;;;;;;;;4994906;28;20057;-60
2021/03/31 04:02:56;;;;;;;49.50;30.63;;;;;;;;;;4994414;28;20026;-60
2021/03/31 04:05:23;;;;;;;47.65;30.88;;;;;;;;;;4994402;28;20023;-60
2021/03/31 04:07:50;;;;;;;46.40;29.05;;;;;;;;;;4994203;28;20034;-60
2021/03/31 04:10:16;;;;;;;44.47;28.70;;;;;;;;;;4994567;28;20055;-60
2021/03/31 04:12:43;;;;;;;42.28;28.02;;;;;;;;;;4994497;28;20180;-60
2021/03/31 04:15:10;;;;;;;44.40;29.23;;;;;;;;;;4994356;28;20547;-59
2021/03/31 04:17:41;;;;;;;45.38;29.50;;;;;;;;;;4993913;28;20380;-60
2021/03/31 04:20:09;;;;;;;47.97;29.88;;;;;;;;;;4992615;28;20111;-60
2021/03/31 04:22:35;;;;;;;41.20;28.38;;;;;;;;;;4994025;28;20065;-60
2021/03/31 04:25:01;;;;;;;46.28;30.08;;;;;;;;;;4981108;28;20034;-60
2021/03/31 04:27:28;;;;;;;46.17;29.83;;;;;;;;;;4994018;28;20026;-60
2021/03/31 04:29:54;;;;;;;52.67;29.92;;;;;;;;;;4993995;28;20031;-60
2021/03/31 04:32:20;;;;;;;51.92;35.65;;;;;;;;;;4993738;28;20424;-60
2021/03/31 04:34:47;;;;;;;54.85;42.15;;;;;;;;;;4993902;28;20057;-61
2021/03/31 04:37:16;;;;;;;80.20;60.10;;;;;;;;;;4994082;28;20030;-60
2021/03/31 04:39:42;;;;;;;67.20;48.10;;;;;;;;;;4993620;28;20030;-60
2021/03/31 04:42:09;;;;;;;58.20;40.13;;;;;;;;;;4994282;28;20406;-60
2021/03/31 04:44:35;;;;;;;50.53;34.13;;;;;;;;;;4994104;28;20030;-60
2021/03/31 04:47:02;;;;;;;53.55;35.15;;;;;;;;;;4993655;28;20046;-60
2021/03/31 04:49:28;;;;;;;52.67;33.70;;;;;;;;;;4979411;28;20386;-59
2021/03/31 04:51:54;;;;;;;51.85;33.53;;;;;;;;;;4993595;28;20125;-60
2021/03/31 04:54:20;;;;;;;51.17;33.92;;;;;;;;;;4993181;28;20477;-60
2021/03/31 04:56:47;;;;;;;51.80;32.22;;;;;;;;;;4993837;28;20026;-60
2021/03/31 04:59:13;;;;;;;48.70;32.05;;;;;;;;;;4990898;28;20037;-61
2021/03/31 05:01:39;;;;;;;46.47;32.85;;;;;;;;;;4993076;28;20030;-61
2021/03/31 05:04:05;;;;;;;45.92;31.58;;;;;;;;;;4993427;28;20031;-60
2021/03/31 05:06:31;;;;;;;50.00;32.15;;;;;;;;;;4993258;28;20469;-60
2021/03/31 05:08:57;;;;;;;49.75;32.40;;;;;;;;;;4993085;28;20465;-59
2021/03/31 05:11:25;;;;;;;57.97;34.17;;;;;;;;;;4993406;28;20018;-60
2021/03/31 05:13:51;;;;;;;56.72;35.38;;;;;;;;;;4993181;28;20034;-61
2021/03/31 05:16:17;;;;;;;60.70;33.92;;;;;;;;;;4993065;28;20029;-60
2021/03/31 05:18:43;;;;;;;53.58;33.92;;;;;;;;;;4992956;28;20066;-61
2021/03/31 05:21:09;;;;;;;49.47;32.85;;;;;;;;;;4992823;28;20057;-60
2021/03/31 05:23:35;;;;;;;55.55;32.75;;;;;;;;;;4993368;28;20553;-60
2021/03/31 05:26:02;;;;;;;55.03;32.80;;;;;;;;;;4993138;28;20429;-60
2021/03/31 05:28:28;;;;;;;60.97;39.78;;;;;;;;;;4992748;28;20022;-60
2021/03/31 05:30:54;;;;;;;60.47;39.30;;;;;;;;;;4990918;28;20492;-60
2021/03/31 05:33:20;;;;;;;64.05;38.00;;;;;;;;;;4981021;28;20034;-61
2021/03/31 05:35:46;;;;;;;56.40;36.50;;;;;;;;;;4993216;28;20021;-60
2021/03/31 05:38:12;;;;;;;50.67;34.00;;;;;;;;;;4992777;28;20031;-60
2021/03/31 05:40:38;;;;;;;54.22;36.13;;;;;;;;;;4993009;28;20543;-60
2021/03/31 05:43:04;;;;;;;53.00;34.15;;;;;;;;;;4992997;28;20049;-60
2021/03/31 05:45:32;;;;;;;52.63;35.97;;;;;;;;;;4993300;28;20034;-60
2021/03/31 05:47:58;;;;;;;53.47;35.38;;;;;;;;;;4992425;28;20416;-61
2021/03/31 05:50:25;;;;;;;55.15;33.53;;;;;;;;;;4993043;28;20042;-61
2021/03/31 05:52:51;;;;;;;56.65;35.22;;;;;;;;;;4993148;28;20064;-62
2021/03/31 05:55:18;;;;;;;57.75;34.63;;;;;;;;;;4993442;28;20368;-61
2021/03/31 05:57:44;;;;;;;49.67;33.67;;;;;;;;;;4993119;28;20023;-61
2021/03/31 06:00:17;;;;;;;51.72;32.47;;;;;;;;;;4992062;28;20026;-61
2021/03/31 06:02:44;;;;;;;53.00;35.03;;;;;;;;;;4992630;28;20030;-61
2021/03/31 06:05:11;;;;;;;58.40;35.88;;;;;;;;;;4992511;28;20069;-61
2021/03/31 06:07:40;;;;;;;51.05;33.88;;;;;;;;;;4995550;28;20018;-61
2021/03/31 06:10:07;;;;;;;53.00;35.35;;;;;;;;;;4996644;28;20418;-61
2021/03/31 06:12:34;;;;;;;50.53;35.40;;;;;;;;;;4996344;28;20038;-61
2021/03/31 06:15:10;;;;;;;53.45;37.00;;;;;;;;;;4996719;28;20019;-61
2021/03/31 06:17:47;;;;;;;55.40;37.00;;;;;;;;;;4996682;28;20084;-61
2021/03/31 06:20:33;;;;;;;64.18;38.13;;;;;;;;;;4996165;28;20033;-62
2021/03/31 06:23:11;;;;;;;57.47;36.42;;;;;;;;;;4996583;28;20030;-61
2021/03/31 06:25:45;;;;;;;58.83;37.88;;;;;;;;;;4995723;28;20042;-62
2021/03/31 06:28:11;;;;;;;56.45;37.42;;;;;;;;;;4995524;28;20026;-61
2021/03/31 06:30:38;;;;;;;62.78;37.70;;;;;;;;;;4995799;28;20077;-61
2021/03/31 06:33:04;;;;;;;53.95;37.10;;;;;;;;;;4994728;28;20038;-62
2021/03/31 06:35:30;;;;;;;56.28;36.20;;;;;;;;;;4993629;28;20030;-62
2021/03/31 06:38:18;;;;;;;53.85;37.78;;;;;;;;;;4994848;28;20031;-61
2021/03/31 06:40:45;;;;;;;56.63;35.97;;;;;;;;;;4992191;28;20030;-61
2021/03/31 06:43:45;;;;;;;59.00;37.50;;;;;;;;;;4994815;28;20385;-62
2021/03/31 06:46:06;;;;;;;50.38;33.63;;;;;;;;;;4993257;28;20034;-61
2021/03/31 06:48:34;;;;;;;50.67;35.05;;;;;;;;;;4994469;28;20046;-61
2021/03/31 06:51:00;;;;;;;52.42;35.15;;;;;;;;;;4991564;28;20027;-61
2021/03/31 06:53:31;;;;;;;49.00;33.20;;;;;;;;;;4989335;28;20062;-61
2021/03/31 06:56:00;;;;;;;55.13;35.08;;;;;;;;;;4983445;28;20023;-61
2021/03/31 06:58:26;;;;;;;59.45;36.67;;;;;;;;;;4987603;28;20022;-62
2021/03/31 07:00:52;;;;;;;52.80;36.17;;;;;;;;;;4982656;28;20034;-61
2021/03/31 07:03:19;;;;;;;54.45;35.25;;;;;;;;;;4987473;28;20522;-62
2021/03/31 07:05:45;;;;;;;51.88;36.15;;;;;;;;;;4983273;28;20035;-62
2021/03/31 07:08:15;;;;;;;52.83;34.67;;;;;;;;;;4993096;28;20022;-62
2021/03/31 07:10:45;;;;;;;50.10;34.03;;;;;;;;;;4995272;28;20480;-61
2021/03/31 07:13:11;;;;;;;52.75;34.80;;;;;;;;;;4994273;28;20046;-61
2021/03/31 07:15:38;;;;;;;44.28;32.70;;;;;;;;;;4994616;28;20050;-61
2021/03/31 07:18:04;;;;;;;57.25;36.08;;;;;;;;;;4995702;28;20031;-60
2021/03/31 07:20:31;;;;;;;51.75;35.97;;;;;;;;;;4992315;28;20033;-61
2021/03/31 07:23:00;;;;;;;48.28;35.47;;;;;;;;;;4994950;28;20034;-62
2021/03/31 07:25:27;;;;;;;54.58;35.30;;;;;;;;;;4985617;28;20018;-60
2021/03/31 07:27:56;;;;;;;49.35;34.15;;;;;;;;;;4978251;28;20064;-58
2021/03/31 07:30:23;;;;;;;48.45;32.97;;;;;;;;;;4986091;28;20030;-58
2021/03/31 07:32:52;;;;;;;46.88;32.88;;;;;;;;;;4992575;28;20038;-62
2021/03/31 07:35:20;;;;;;;46.03;32.65;;;;;;;;;;4992388;28;20027;-62
2021/03/31 07:37:47;;;;;;;51.38;30.83;;;;;;;;;;4990434;28;20381;-65
2021/03/31 07:40:15;;;;;;;41.33;29.90;;;;;;;;;;4980929;28;20031;-60
2021/03/31 07:42:44;;;;;;;45.55;31.02;;;;;;;;;;4976098;28;20022;-65
2021/03/31 07:45:11;;;;;;;44.53;30.33;;;;;;;;;;4983319;28;20029;-65
2021/03/31 07:47:37;;;;;;;44.13;30.58;;;;;;;;;;4992970;28;20046;-63
2021/03/31 07:50:04;;;;;;;39.63;30.58;;;;;;;;;;4992242;28;20066;-65
2021/03/31 07:52:49;;;;;;;50.45;31.02;;;;;;;;;;4993175;28;20031;-65
2021/03/31 07:55:30;;;;;;;43.22;30.42;;;;;;;;;;4992362;28;20030;-64
2021/03/31 07:58:14;;;;;;;37.90;28.10;;;;;;;;;;4993547;28;20113;-65
2021/03/31 08:00:47;;;;;;;36.25;28.20;;;;;;;;;;4993293;28;20062;-65
2021/03/31 08:03:15;;;;;;;44.60;28.02;;;;;;;;;;4992367;28;20022;-65
2021/03/31 08:05:59;;;;;;;38.10;26.58;;;;;;;;;;4994412;28;20034;-63
2021/03/31 08:08:25;;;;;;;35.67;23.63;;;;;;;;;;4992611;28;20026;-64
2021/03/31 08:10:51;;;;;;;39.65;23.58;;;;;;;;;;4991775;28;20022;-64
2021/03/31 08:13:28;;;;;;;31.83;22.23;;;;;;;;;;4993694;28;20026;-63
2021/03/31 08:15:55;;;;;;;32.25;21.13;;;;;;;;;;4991927;28;20026;-64
2021/03/31 08:18:21;;;;;;;29.73;21.52;;;;;;;;;;4994341;28;20052;-67
2021/03/31 08:20:51;;;;;;;28.85;19.30;;;;;;;;;;4988800;28;20030;-63
2021/03/31 08:23:35;;;;;;;26.83;17.35;;;;;;;;;;4991893;28;20034;-64
2021/03/31 08:26:21;;;;;;;33.03;17.67;;;;;;;;;;4992773;28;20062;-64
2021/03/31 08:28:47;;;;;;;22.13;16.80;;;;;;;;;;4989786;28;20027;-66
2021/03/31 08:31:22;;;;;;;32.50;19.55;;;;;;;;;;4984642;28;20076;-65
2021/03/31 08:33:49;;;;;;;32.05;21.25;;;;;;;;;;4993712;28;20030;-65
2021/03/31 08:36:15;;;;;;;30.80;21.67;;;;;;;;;;4993648;28;20029;-64
2021/03/31 08:38:42;;;;;;;28.70;21.13;;;;;;;;;;4992525;28;20038;-64
2021/03/31 08:41:15;;;;;;;31.55;21.10;;;;;;;;;;4993491;28;20526;-64
2021/03/31 08:43:42;;;;;;;30.10;21.13;;;;;;;;;;4993981;28;20069;-64
2021/03/31 08:46:09;;;;;;;37.65;21.35;;;;;;;;;;4993871;28;20461;-64
2021/03/31 08:48:37;;;;;;;28.77;21.67;;;;;;;;;;4993563;28;20468;-63
2021/03/31 08:51:06;;;;;;;31.33;19.30;;;;;;;;;;4990063;28;20027;-63
2021/03/31 08:53:33;;;;;;;40.97;22.10;;;;;;;;;;4990560;28;20530;-63
2021/03/31 08:55:59;;;;;;;21.88;16.13;;;;;;;;;;4989078;28;20036;-66
2021/03/31 08:58:27;;;;;;;23.13;16.33;;;;;;;;;;4988270;28;20026;-64
2021/03/31 09:00:53;;;;;;;22.60;16.02;;;;;;;;;;4989294;28;20080;-63
2021/03/31 09:03:20;;;;;;;16.63;13.68;;;;;;;;;;4993210;28;20054;-67
2021/03/31 09:05:56;;;;;;;19.52;13.57;;;;;;;;;;4993464;28;20449;-65
2021/03/31 09:08:23;;;;;;;21.80;15.32;;;;;;;;;;4992219;28;20042;-65
2021/03/31 09:10:52;;;;;;;19.38;13.25;;;;;;;;;;4991718;28;20566;-64
2021/03/31 09:13:45;;;;;;;21.98;14.75;;;;;;;;;;4990255;28;20057;-63
2021/03/31 09:16:15;;;;;;;18.40;13.13;;;;;;;;;;4988268;28;20046;-63
2021/03/31 09:18:42;;;;;;;17.30;13.68;;;;;;;;;;4993301;28;20100;-62
2021/03/31 09:21:08;;;;;;;21.80;13.27;;;;;;;;;;4992795;28;20046;-63
2021/03/31 09:23:35;;;;;;;18.10;12.63;;;;;;;;;;4987782;28;20027;-63
2021/03/31 09:26:02;;;;;;;19.05;13.35;;;;;;;;;;4988083;28;20026;-63
2021/03/31 09:28:28;;;;;;;18.33;12.55;;;;;;;;;;4992666;28;20033;-63
2021/03/31 09:30:57;;;;;;;16.02;11.75;;;;;;;;;;4993123;28;20037;-64
2021/03/31 09:33:31;;;;;;;17.25;12.43;;;;;;;;;;4992699;28;20057;-64
2021/03/31 09:36:09;;;;;;;14.70;11.85;;;;;;;;;;4992753;28;20022;-63
2021/03/31 09:38:35;;;;;;;13.75;10.45;;;;;;;;;;4990729;28;20109;-63
2021/03/31 09:41:03;;;;;;;19.17;11.43;;;;;;;;;;4981093;28;20026;-63
2021/03/31 09:43:30;;;;;;;18.38;13.73;;;;;;;;;;4990808;28;20484;-64
2021/03/31 09:45:57;;;;;;;18.90;12.80;;;;;;;;;;4992966;28;20023;-63
2021/03/31 09:48:24;;;;;;;21.98;14.25;;;;;;;;;;4992017;28;20073;-64
2021/03/31 09:50:50;;;;;;;17.90;13.50;;;;;;;;;;4992697;28;20073;-65
2021/03/31 09:53:16;;;;;;;19.17;13.25;;;;;;;;;;4986604;28;20038;-64
2021/03/31 09:55:43;;;;;;;16.42;11.55;;;;;;;;;;4993196;28;20022;-64
2021/03/31 09:58:09;;;;;;;16.95;11.43;;;;;;;;;;4991411;28;20030;-65
2021/03/31 10:00:37;;;;;;;18.52;11.35;;;;;;;;;;4992491;28;20025;-66
2021/03/31 10:03:06;;;;;;;14.90;11.50;;;;;;;;;;4992101;28;20034;-64
2021/03/31 10:05:33;;;;;;;15.32;11.30;;;;;;;;;;4992435;28;20527;-66
2021/03/31 10:08:00;;;;;;;16.55;10.93;;;;;;;;;;4992675;28;20042;-65
2021/03/31 10:10:38;;;;;;;11.82;8.85;;;;;;;;;;4991926;28;20029;-64
2021/03/31 10:13:05;;;;;;;16.35;8.88;;;;;;;;;;4992809;28;20034;-64
2021/03/31 10:15:31;;;;;;;15.93;9.60;;;;;;;;;;4991548;28;20014;-66
2021/03/31 10:17:58;;;;;;;12.27;8.88;;;;;;;;;;4989554;28;20504;-65
2021/03/31 10:20:29;;;;;;;12.38;9.00;;;;;;;;;;4990321;28;20058;-66
2021/03/31 10:22:55;;;;;;;18.30;10.40;;;;;;;;;;4992348;28;20022;-67
2021/03/31 10:25:24;;;;;;;14.18;10.65;;;;;;;;;;4977725;28;20019;-68
2021/03/31 10:27:51;;;;;;;22.83;10.82;;;;;;;;;;4992089;28;20031;-65
2021/03/31 10:30:30;;;;;;;16.85;10.93;;;;;;;;;;4992589;28;20141;-65
2021/03/31 10:32:57;;;;;;;13.75;10.13;;;;;;;;;;4991898;28;20037;-68
2021/03/31 10:35:53;;;;;;;11.25;9.18;;;;;;;;;;4991481;28;20101;-64
2021/03/31 10:38:38;;;;;;;13.43;9.32;;;;;;;;;;4984455;28;20026;-64
2021/03/31 10:41:36;;;;;;;13.80;10.23;;;;;;;;;;4988208;28;20105;-65
2021/03/31 10:49:18;;;;;;;15.15;9.48;;;;;;;;;;4978829;28;20030;-64
2021/03/31 10:54:23;;;;;;;40.50;10.73;;;;;;;;;;4978891;28;20041;-64
2021/03/31 10:56:54;;;;;;;11.38;9.10;;;;;;;;;;4995142;28;20432;-66
2021/03/31 10:59:20;;;;;;;13.45;8.18;;;;;;;;;;4994308;28;20028;-65
2021/03/31 11:01:46;;;;;;;9.27;7.43;;;;;;;;;;4993767;28;20044;-65
2021/03/31 11:04:13;;;;;;;11.02;7.35;;;;;;;;;;4989191;28;20022;-64
2021/03/31 11:06:39;;;;;;;11.02;7.90;;;;;;;;;;4987768;28;20037;-64
2021/03/31 11:09:05;;;;;;;9.73;6.93;;;;;;;;;;4990723;28;20037;-64
2021/03/31 11:11:31;;;;;;;9.00;6.68;;;;;;;;;;4989619;28;20030;-65
2021/03/31 11:13:57;;;;;;;8.70;6.82;;;;;;;;;;4992468;28;20097;-64
2021/03/31 11:16:25;;;;;;;10.77;8.15;;;;;;;;;;4990996;28;20541;-63
2021/03/31 11:19:07;;;;;;;9.15;7.15;;;;;;;;;;4991201;28;20034;-58
2021/03/31 11:26:44;;;;;;;9.15;6.55;;;;;;;;;;4976526;28;20038;-58
2021/03/31 11:29:10;;;;;;;11.30;7.72;;;;;;;;;;4993889;28;20101;-60
2021/03/31 11:31:36;;;;;;;11.02;6.65;;;;;;;;;;4995019;28;20026;-62
2021/03/31 11:34:02;;;;;;;9.45;6.35;;;;;;;;;;4992549;28;20046;-58
2021/03/31 11:36:28;;;;;;;10.05;5.75;;;;;;;;;;4993201;28;20504;-59
2021/03/31 11:38:54;;;;;;;12.02;5.65;;;;;;;;;;4989384;28;20043;-58
2021/03/31 11:41:20;;;;;;;9.18;6.00;;;;;;;;;;4994173;28;20030;-59
2021/03/31 11:43:47;;;;;;;6.97;6.15;;;;;;;;;;4993839;28;20027;-58
2021/03/31 11:46:13;;;;;;;9.48;5.88;;;;;;;;;;4994449;28;20029;-57
2021/03/31 11:48:40;;;;;;;9.57;5.85;;;;;;;;;;4993847;28;20061;-59
2021/03/31 11:51:06;;;;;;;7.50;5.40;;;;;;;;;;4994397;28;20023;-59
2021/03/31 11:53:32;;;;;;;8.77;5.45;;;;;;;;;;4993277;28;20045;-58
2021/03/31 11:55:59;;;;;;;7.00;5.28;;;;;;;;;;4994293;28;20044;-60
2021/03/31 11:58:25;;;;;;;6.53;5.18;;;;;;;;;;4994090;28;20036;-58
2021/03/31 12:00:51;;;;;;;7.28;5.78;;;;;;;;;;4993361;28;20073;-60
2021/03/31 12:03:20;;;;;;;7.13;5.43;;;;;;;;;;4993621;28;20022;-58
2021/03/31 12:05:47;;;;;;;8.77;6.22;;;;;;;;;;4994565;28;20457;-59
2021/03/31 12:08:13;;;;;;;7.82;5.80;;;;;;;;;;4993751;28;20027;-59
2021/03/31 12:10:39;;;;;;;7.72;5.90;;;;;;;;;;4993325;28;20069;-58
2021/03/31 12:13:05;;;;;;;8.88;5.75;;;;;;;;;;4993726;28;20473;-58
2021/03/31 12:15:32;;;;;;;9.35;5.80;;;;;;;;;;4993988;28;20101;-58
2021/03/31 12:17:58;;;;;;;8.20;5.60;;;;;;;;;;4993962;28;20065;-55
2021/03/31 12:20:24;;;;;;;7.35;5.00;;;;;;;;;;4993804;28;20042;-58
2021/03/31 12:22:50;;;;;;;9.57;5.95;;;;;;;;;;4993425;28;20033;-58
2021/03/31 12:25:16;;;;;;;11.77;5.88;;;;;;;;;;4992071;28;20484;-59
2021/03/31 12:27:45;;;;;;;6.72;5.53;;;;;;;;;;4994044;28;20473;-58
2021/03/31 12:30:11;;;;;;;;;;;;;;;;;;4994479;28;20022;-60
2021/03/31 12:32:37;;;;;;;10.95;5.88;;;;;;;;;;4993983;28;19917;-62
2021/03/31 12:35:04;;;;;;;8.88;4.80;;;;;;;;;;4990281;28;20037;-62
2021/03/31 12:37:30;;;;;;;9.30;6.00;;;;;;;;;;4982770;28;20022;-61
2021/03/31 12:39:56;;;;;;;7.43;5.78;;;;;;;;;;4991189;28;20030;-61
2021/03/31 12:42:23;;;;;;;8.00;6.13;;;;;;;;;;4993322;28;20030;-61
2021/03/31 12:44:49;;;;;;;6.00;5.20;;;;;;;;;;4993481;28;20026;-62
2021/03/31 12:47:18;;;;;;;8.82;5.25;;;;;;;;;;4993001;28;20042;-63
2021/03/31 12:49:46;;;;;;;12.50;6.93;;;;;;;;;;4993105;28;20077;-62
2021/03/31 12:52:15;;;;;;;6.68;5.25;;;;;;;;;;4993102;28;20030;-61
2021/03/31 12:57:21;;;;;;;7.53;4.47;;;;;;;;;;4986969;28;20280;-62
2021/03/31 12:59:47;;;;;;;8.52;5.65;;;;;;;;;;4990414;28;20023;-63
2021/03/31 13:02:13;;;;;;;7.45;5.22;;;;;;;;;;4993112;28;20040;-62
2021/03/31 13:04:39;;;;;;;8.88;4.70;;;;;;;;;;4991660;28;20026;-64
2021/03/31 13:07:05;;;;;;;9.43;4.57;;;;;;;;;;4993352;28;20080;-62
2021/03/31 13:09:32;;;;;;;6.43;4.75;;;;;;;;;;4992959;28;20053;-62
2021/03/31 13:11:59;;;;;;;6.75;4.53;;;;;;;;;;4992886;28;20117;-62
2021/03/31 13:17:12;;;;;;;8.30;4.90;;;;;;;;;;4989699;28;20026;-62
2021/03/31 13:24:58;;;;;;;6.10;4.00;;;;;;;;;;4988200;28;20025;-62
2021/03/31 13:33:08;;;;;;;5.88;4.25;;;;;;;;;;4964128;28;20074;-60
2021/03/31 13:38:51;;;;;;;;;;;;;;;;;;4970634;28;20031;-61
2021/03/31 13:41:17;;;;;;;8.13;4.43;;;;;;;;;;4970870;28;19910;-62
2021/03/31 13:43:43;;;;;;;6.28;3.85;;;;;;;;;;4970442;28;20046;-62
2021/03/31 13:46:09;;;;;;;5.38;3.63;;;;;;;;;;4970424;28;20536;-62
2021/03/31 13:48:47;;;;;;;3.88;3.47;;;;;;;;;;4970886;28;20038;-61
2021/03/31 13:51:14;;;;;;;6.80;4.05;;;;;;;;;;4970170;28;20045;-62
2021/03/31 13:53:41;;;;;;;6.65;3.88;;;;;;;;;;4970082;28;20528;-62
2021/03/31 13:56:26;;;;;;;6.55;4.63;;;;;;;;;;4970437;28;20066;-62
2021/03/31 13:58:52;;;;;;;4.30;3.17;;;;;;;;;;4969262;28;20029;-61
2021/03/31 14:01:18;;;;;;;6.45;3.97;;;;;;;;;;4971085;28;20038;-61
2021/03/31 14:03:44;;;;;;;7.18;4.43;;;;;;;;;;4967389;28;20106;-61
2021/03/31 14:06:10;;;;;;;6.82;3.58;;;;;;;;;;4970616;28;20026;-61
2021/03/31 14:08:36;;;;;;;7.13;3.63;;;;;;;;;;4966467;28;20089;-61
2021/03/31 14:11:03;;;;;;;6.25;4.43;;;;;;;;;;4969969;28;20019;-61
2021/03/31 14:13:29;;;;;;;8.50;4.65;;;;;;;;;;4974351;28;20050;-63
2021/03/31 14:15:55;;;;;;;9.48;4.60;;;;;;;;;;4990858;28;20068;-61
2021/03/31 14:18:22;;;;;;;6.60;4.95;;;;;;;;;;4991905;28;20488;-62
2021/03/31 14:20:49;;;;;;;6.35;4.28;;;;;;;;;;4991536;28;20062;-63
2021/03/31 14:23:15;;;;;;;7.10;4.72;;;;;;;;;;4990740;28;20022;-62
2021/03/31 14:25:41;;;;;;;7.75;4.47;;;;;;;;;;4994154;28;20026;-61
2021/03/31 14:28:07;;;;;;;7.82;4.10;;;;;;;;;;4995323;28;20110;-60
2021/03/31 14:30:33;;;;;;;4.30;3.60;;;;;;;;;;4995143;28;20018;-61
2021/03/31 14:32:59;;;;;;;5.55;3.22;;;;;;;;;;4994200;28;20508;-63
2021/03/31 14:35:25;;;;;;;8.13;3.83;;;;;;;;;;4982524;28;20541;-62
2021/03/31 14:37:51;;;;;;;6.35;4.32;;;;;;;;;;4991538;28;20042;-61
2021/03/31 14:40:18;;;;;;;7.63;4.18;;;;;;;;;;4988607;28;20475;-61
2021/03/31 14:42:44;;;;;;;5.50;3.90;;;;;;;;;;4985031;28;20073;-59
2021/03/31 14:45:10;;;;;;;3.78;3.33;;;;;;;;;;4989311;28;20501;-64
2021/03/31 14:47:38;;;;;;;6.35;3.75;;;;;;;;;;4991920;28;20054;-65
2021/03/31 14:50:06;;;;;;;6.18;3.65;;;;;;;;;;4991540;28;20073;-63
2021/03/31 15:00:27;;;;;;;6.60;4.20;;;;;;;;;;4991478;28;20027;-64
2021/03/31 15:02:53;;;;;;;4.70;3.47;;;;;;;;;;4992098;28;20030;-64
2021/03/31 15:05:19;;;;;;;5.88;4.15;;;;;;;;;;4991585;28;20507;-63
2021/03/31 15:07:46;;;;;;;17.13;3.78;;;;;;;;;;4991701;28;20049;-65
2021/03/31 15:10:12;;;;;;;7.32;4.07;;;;;;;;;;4989518;28;20033;-65